Time;durP1;ratioP1;P1;durP2;ratioP2;P2;SDS_P1;SDS_P2;PMS_P1;PMS_P2;Temp;Humidity;BMP_temperature;BMP_pressure;BME280_temperature;BME280_humidity;BME280_pressure;Samples;Min_cycle;Max_cycle;Signal;HPM_P1;HPM_P2
2021/09/28 00:02:15;;;;;;;9.52;5.65;;;;;;;13.48;69.21;96798.56;5095385;28;20490;-65
2021/09/28 00:04:41;;;;;;;10.48;5.90;;;;;;;13.52;69.23;96801.94;5095273;28;20043;-65
2021/09/28 00:07:06;;;;;;;12.57;6.25;;;;;;;13.57;69.30;96810.47;5095237;28;20032;-65
2021/09/28 00:09:32;;;;;;;8.80;6.25;;;;;;;13.60;69.44;96814.72;5093780;28;20114;-65
2021/09/28 00:11:57;;;;;;;9.52;5.68;;;;;;;13.61;69.58;96812.03;5095155;28;20016;-65
2021/09/28 00:14:24;;;;;;;8.70;5.43;;;;;;;13.63;69.52;96809.31;5095057;28;20127;-65
2021/09/28 00:16:50;;;;;;;7.25;5.60;;;;;;;13.57;70.08;96805.22;5095005;28;20024;-65
2021/09/28 00:19:16;;;;;;;8.55;5.38;;;;;;;13.51;71.01;96800.22;5094964;28;20089;-65
2021/09/28 00:21:42;;;;;;;8.45;5.63;;;;;;;13.47;71.03;96810.00;5094764;28;20486;-65
2021/09/28 00:24:08;;;;;;;6.75;5.03;;;;;;;13.43;70.88;96812.84;5094744;28;20041;-65
2021/09/28 00:26:33;;;;;;;6.82;5.65;;;;;;;13.50;70.57;96809.03;5094845;28;20024;-66
2021/09/28 00:28:59;;;;;;;10.60;5.72;;;;;;;13.52;70.95;96820.34;5094825;28;20389;-65
2021/09/28 00:31:25;;;;;;;7.68;5.60;;;;;;;13.52;70.80;96812.47;5094710;28;20024;-65
2021/09/28 00:33:50;;;;;;;7.70;5.43;;;;;;;13.56;70.90;96816.66;5094701;28;20024;-65
2021/09/28 00:36:16;;;;;;;8.82;4.90;;;;;;;13.57;70.81;96820.16;5094739;28;20020;-65
2021/09/28 00:38:41;;;;;;;6.15;5.30;;;;;;;13.53;70.55;96816.78;5094597;28;20035;-65
2021/09/28 00:41:07;;;;;;;8.13;5.53;;;;;;;13.51;70.64;96819.47;5094622;28;20416;-65
2021/09/28 00:43:49;;;;;;;7.45;5.57;;;;;;;13.56;70.60;96821.91;5094462;28;20500;-65
2021/09/28 00:46:16;;;;;;;10.02;5.85;;;;;;;13.58;70.49;96819.22;5094380;28;20020;-65
2021/09/28 00:48:42;;;;;;;7.00;5.28;;;;;;;13.56;70.63;96813.16;5094351;28;20373;-65
2021/09/28 00:51:10;;;;;;;9.25;5.07;;;;;;;13.50;70.33;96807.28;5094405;28;20084;-65
2021/09/28 00:53:39;;;;;;;6.00;4.90;;;;;;;13.46;70.58;96803.03;5094051;28;20040;-66
2021/09/28 00:56:07;;;;;;;6.45;5.20;;;;;;;13.42;71.27;96801.47;5094208;28;20474;-65
2021/09/28 00:58:35;;;;;;;7.05;4.93;;;;;;;13.38;71.18;96795.53;5094346;28;20024;-65
2021/09/28 01:01:03;;;;;;;5.68;5.07;;;;;;;13.35;71.93;96800.03;5093200;28;20048;-65
2021/09/28 01:03:32;;;;;;;9.13;5.22;;;;;;;13.31;71.84;96796.72;5094185;28;20032;-65
2021/09/28 01:05:59;;;;;;;11.07;5.47;;;;;;;13.27;71.49;96792.50;5094020;28;20050;-65
2021/09/28 01:08:25;;;;;;;7.53;4.50;;;;;;;13.20;71.40;96794.56;5093941;28;20024;-66
2021/09/28 01:10:50;;;;;;;6.90;5.22;;;;;;;13.19;71.92;96798.13;5093997;28;20535;-65
2021/09/28 01:13:16;;;;;;;7.88;5.07;;;;;;;13.24;72.35;96790.00;5093980;28;20052;-65
2021/09/28 01:16:00;;;;;;;6.90;5.10;;;;;;;13.27;71.68;96793.38;5093826;28;20030;-65
2021/09/28 01:18:31;;;;;;;6.28;4.53;;;;;;;13.24;71.34;96788.25;5093872;28;20024;-65
2021/09/28 01:20:58;;;;;;;6.57;4.72;;;;;;;13.19;71.68;96802.50;5093819;28;20099;-65
2021/09/28 01:23:24;;;;;;;7.00;4.88;;;;;;;13.18;71.59;96795.56;5093768;28;20032;-65
2021/09/28 01:25:49;;;;;;;7.72;5.45;;;;;;;13.19;71.88;96792.88;5093492;28;20078;-65
2021/09/28 01:28:15;;;;;;;22.38;5.38;;;;;;;13.19;71.86;96795.50;5093753;28;20028;-65
2021/09/28 01:30:41;;;;;;;6.38;4.82;;;;;;;13.19;71.88;96794.63;5093524;28;20047;-65
2021/09/28 01:33:06;;;;;;;9.65;4.82;;;;;;;13.09;73.13;96792.41;5093555;28;20416;-65
2021/09/28 01:35:32;;;;;;;7.15;5.47;;;;;;;13.08;74.38;96785.47;5093599;28;20520;-65
2021/09/28 01:37:58;;;;;;;10.60;5.88;;;;;;;13.05;74.56;96772.47;5093496;28;20084;-65
2021/09/28 01:40:24;;;;;;;10.88;5.28;;;;;;;13.07;74.06;96775.03;5093580;28;20027;-65
2021/09/28 01:42:50;;;;;;;7.28;4.97;;;;;;;13.10;73.32;96770.47;5092158;28;20381;-65
2021/09/28 01:45:16;;;;;;;8.00;4.90;;;;;;;13.11;73.47;96763.44;5093319;28;20611;-65
2021/09/28 01:47:42;;;;;;;8.13;4.97;;;;;;;13.15;72.88;96775.53;5093445;28;20055;-65
2021/09/28 01:50:08;;;;;;;6.63;3.95;;;;;;;13.14;72.54;96772.06;5093368;28;20390;-65
2021/09/28 01:52:39;;;;;;;9.40;5.28;;;;;;;13.08;72.62;96776.72;5093078;28;20081;-65
2021/09/28 01:55:06;;;;;;;8.07;5.35;;;;;;;13.03;73.37;96774.28;5093370;28;20059;-65
2021/09/28 01:57:33;;;;;;;12.27;5.32;;;;;;;13.03;73.36;96776.91;5093237;28;20066;-65
2021/09/28 02:00:00;;;;;;;7.32;4.60;;;;;;;13.05;73.34;96774.22;5093157;28;20032;-65
2021/09/28 02:02:26;;;;;;;11.95;5.88;;;;;;;12.88;75.47;96766.19;5093371;28;20024;-65
2021/09/28 02:04:52;;;;;;;6.90;5.50;;;;;;;12.87;75.17;96764.47;5093201;28;20039;-65
2021/09/28 02:07:17;;;;;;;11.00;5.72;;;;;;;12.85;73.89;96761.06;5093180;28;20039;-65
2021/09/28 02:09:43;;;;;;;10.10;5.78;;;;;;;12.82;73.81;96760.34;5093148;28;20016;-65
2021/09/28 02:12:08;;;;;;;9.30;5.22;;;;;;;12.84;74.65;96754.09;5094298;28;20234;-65
2021/09/28 02:14:34;;;;;;;9.38;5.13;;;;;;;12.87;74.29;96756.59;5097284;28;20016;-65
2021/09/28 02:16:59;;;;;;;6.28;4.60;;;;;;;12.89;73.80;96740.78;5097479;28;20020;-65
2021/09/28 02:19:25;;;;;;;9.57;5.30;;;;;;;12.89;73.96;96743.41;5097314;28;20024;-65
2021/09/28 02:21:50;;;;;;;14.73;5.68;;;;;;;12.82;73.86;96745.44;5097239;28;20196;-64
2021/09/28 02:24:16;;;;;;;7.82;5.25;;;;;;;12.88;74.39;96752.19;5097188;28;20027;-65
2021/09/28 02:26:43;;;;;;;10.82;5.28;;;;;;;12.88;73.39;96750.44;5097148;28;20016;-65
2021/09/28 02:29:09;;;;;;;7.35;4.55;;;;;;;12.84;72.97;96750.63;5097110;28;20020;-65
2021/09/28 02:31:35;;;;;;;9.05;5.93;;;;;;;12.83;73.47;96746.31;5097038;28;20032;-65
2021/09/28 02:34:06;;;;;;;8.60;4.93;;;;;;;12.86;73.42;96747.00;5096994;28;20027;-65
2021/09/28 02:36:32;;;;;;;6.30;5.00;;;;;;;12.84;73.16;96737.50;5096938;28;20116;-65
2021/09/28 02:38:57;;;;;;;6.85;5.40;;;;;;;12.88;73.56;96733.81;5096969;28;20103;-65
2021/09/28 02:41:23;;;;;;;6.05;4.85;;;;;;;12.91;73.24;96740.72;5096837;28;20062;-65
2021/09/28 02:43:48;;;;;;;6.97;5.13;;;;;;;12.89;73.12;96740.78;5096692;28;20031;-65
2021/09/28 02:46:14;;;;;;;6.60;4.90;;;;;;;12.92;73.13;96737.16;5096671;28;20393;-64
2021/09/28 02:48:39;;;;;;;9.68;5.32;;;;;;;12.84;73.13;96743.63;5096658;28;20024;-65
2021/09/28 02:51:05;;;;;;;11.05;5.82;;;;;;;12.84;73.91;96746.22;5096696;28;20374;-65
2021/09/28 02:53:31;;;;;;;7.45;4.47;;;;;;;12.91;74.22;96753.84;5096375;28;20044;-65
2021/09/28 02:55:56;;;;;;;8.32;4.80;;;;;;;12.91;73.78;96749.44;5096576;28;20032;-64
2021/09/28 02:58:22;;;;;;;7.13;5.18;;;;;;;12.94;74.45;96758.97;5096448;28;20027;-64
2021/09/28 03:00:47;;;;;;;6.18;4.97;;;;;;;12.95;74.18;96756.28;5096388;28;20016;-64
2021/09/28 03:03:13;;;;;;;6.25;4.93;;;;;;;12.88;74.23;96753.06;5096489;28;20027;-65
2021/09/28 03:05:39;;;;;;;12.15;5.75;;;;;;;12.85;74.12;96745.31;5096359;28;20390;-65
2021/09/28 03:08:04;;;;;;;8.48;5.38;;;;;;;12.86;74.29;96751.41;5096349;28;20028;-64
2021/09/28 03:10:30;;;;;;;6.25;5.32;;;;;;;12.85;74.97;96747.94;5096401;28;20069;-64
2021/09/28 03:12:55;;;;;;;6.07;4.75;;;;;;;12.94;74.40;96761.59;5096372;28;20036;-64
2021/09/28 03:15:21;;;;;;;10.85;5.50;;;;;;;12.93;74.22;96752.84;5096199;28;20028;-64
2021/09/28 03:17:46;;;;;;;12.15;5.85;;;;;;;12.89;74.19;96756.53;5096273;28;20016;-64
2021/09/28 03:20:12;;;;;;;7.22;5.00;;;;;;;12.88;74.08;96763.56;5096085;28;20016;-65
2021/09/28 03:22:38;;;;;;;6.15;5.07;;;;;;;12.76;74.34;96757.06;5096170;28;20470;-65
2021/09/28 03:25:04;;;;;;;7.07;5.10;;;;;;;12.78;74.60;96754.38;5094929;28;20051;-64
2021/09/28 03:27:30;;;;;;;8.77;5.63;;;;;;;12.80;74.46;96756.94;5095893;28;20024;-65
2021/09/28 03:29:56;;;;;;;6.28;5.20;;;;;;;12.82;74.03;96755.09;5095864;28;20090;-65
2021/09/28 03:32:21;;;;;;;8.50;5.05;;;;;;;12.88;74.21;96757.44;5095886;28;20351;-65
2021/09/28 03:34:47;;;;;;;8.32;5.95;;;;;;;12.85;74.33;96750.56;5095811;28;20367;-64
2021/09/28 03:37:12;;;;;;;9.85;5.80;;;;;;;12.82;74.61;96752.47;5095782;28;20024;-65
2021/09/28 03:39:38;;;;;;;7.20;5.85;;;;;;;12.82;75.15;96753.31;5095827;28;20377;-65
2021/09/28 03:42:04;;;;;;;7.32;6.10;;;;;;;12.81;76.01;96749.00;5095767;28;20074;-65
2021/09/28 03:44:30;;;;;;;8.07;6.28;;;;;;;12.74;75.80;96751.00;5095495;28;20028;-65
2021/09/28 03:46:55;;;;;;;7.78;5.78;;;;;;;12.82;75.18;96755.09;5095739;28;20016;-65
2021/09/28 03:49:21;;;;;;;7.20;5.75;;;;;;;12.82;74.48;96755.09;5095715;28;20028;-65
2021/09/28 03:51:46;;;;;;;11.55;5.55;;;;;;;12.79;74.37;96753.44;5095599;28;20107;-65
2021/09/28 03:54:12;;;;;;;6.88;5.32;;;;;;;12.72;74.38;96755.50;5095213;28;20094;-64
2021/09/28 03:56:38;;;;;;;7.90;6.05;;;;;;;12.73;74.68;96758.97;5095473;28;20421;-65
2021/09/28 03:59:04;;;;;;;7.43;5.22;;;;;;;12.73;74.12;96759.81;5095323;28;20047;-65
2021/09/28 04:01:29;;;;;;;8.45;5.22;;;;;;;12.75;74.14;96759.75;5095353;28;20169;-65
2021/09/28 04:03:55;;;;;;;12.65;6.35;;;;;;;12.72;74.41;96760.75;5095239;28;20035;-65
2021/09/28 04:06:20;;;;;;;6.43;5.10;;;;;;;12.70;73.77;96764.38;5095352;28;20016;-65
2021/09/28 04:08:46;;;;;;;9.57;6.40;;;;;;;12.65;73.84;96751.44;5095186;28;20019;-65
2021/09/28 04:11:12;;;;;;;11.48;5.53;;;;;;;12.66;74.20;96761.00;5095014;28;20035;-65
2021/09/28 04:13:40;;;;;;;6.20;5.18;;;;;;;12.67;73.71;96752.19;5095102;28;20020;-65
2021/09/28 04:16:07;;;;;;;7.22;5.05;;;;;;;12.69;73.80;96757.38;5095098;28;20028;-65
2021/09/28 04:18:33;;;;;;;11.85;6.40;;;;;;;12.68;74.90;96758.31;5095029;28;20036;-65
2021/09/28 04:20:59;;;;;;;8.50;6.75;;;;;;;12.67;75.02;96764.50;5095052;28;20028;-65
2021/09/28 04:23:25;;;;;;;13.68;6.72;;;;;;;12.59;75.31;96751.69;5094867;28;20023;-65
2021/09/28 04:25:51;;;;;;;7.38;6.10;;;;;;;12.66;75.51;96766.25;5094682;28;20042;-65
2021/09/28 04:28:16;;;;;;;8.18;5.95;;;;;;;12.73;74.45;96761.59;5094763;28;20058;-65
2021/09/28 04:30:42;;;;;;;7.43;6.20;;;;;;;12.79;74.10;96769.19;5094832;28;20024;-65
2021/09/28 04:33:08;;;;;;;10.48;5.90;;;;;;;12.82;73.77;96768.22;5094737;28;20024;-65
2021/09/28 04:35:34;;;;;;;9.55;6.32;;;;;;;12.84;73.79;96769.00;5094443;28;20031;-65
2021/09/28 04:37:59;;;;;;;9.60;6.57;;;;;;;12.85;74.08;96770.69;5094602;28;20035;-65
2021/09/28 04:40:25;;;;;;;13.15;5.80;;;;;;;12.85;74.19;96768.06;5094592;28;20074;-65
2021/09/28 04:42:51;;;;;;;10.68;6.18;;;;;;;12.89;73.20;96775.75;5094612;28;20028;-65
2021/09/28 04:45:17;;;;;;;8.55;6.53;;;;;;;12.88;73.48;96781.94;5094403;28;20405;-65
2021/09/28 04:47:43;;;;;;;17.05;6.78;;;;;;;12.91;73.76;96787.97;5094448;28;20020;-65
2021/09/28 04:50:09;;;;;;;9.63;6.45;;;;;;;12.96;74.02;96788.63;5094491;28;20024;-65
2021/09/28 04:52:36;;;;;;;8.75;5.68;;;;;;;13.08;73.10;96792.47;5094326;28;20081;-65
2021/09/28 04:55:06;;;;;;;8.88;5.75;;;;;;;13.18;73.14;96796.41;5094112;28;20505;-65
2021/09/28 04:57:32;;;;;;;10.52;6.22;;;;;;;13.38;72.65;96794.66;5094236;28;20024;-65
2021/09/28 04:59:58;;;;;;;9.73;5.30;;;;;;;13.64;72.54;96796.09;5092885;28;20065;-65
2021/09/28 05:02:24;;;;;;;9.30;5.47;;;;;;;14.01;70.94;96796.16;5094073;28;20068;-65
2021/09/28 05:04:49;;;;;;;10.10;5.55;;;;;;;14.48;69.80;96799.16;5093981;28;20078;-65
2021/09/28 05:07:15;;;;;;;8.02;5.07;;;;;;;14.96;69.14;96795.09;5094102;28;20488;-65
2021/09/28 05:09:40;;;;;;;7.68;5.13;;;;;;;15.38;68.68;96793.75;5094024;28;20024;-65
2021/09/28 05:12:07;;;;;;;8.05;4.85;;;;;;;15.68;68.41;96801.88;5093866;28;20484;-65
2021/09/28 05:14:33;;;;;;;5.95;4.50;;;;;;;16.22;66.39;96798.91;5093898;28;20020;-65
2021/09/28 05:16:59;;;;;;;8.13;4.78;;;;;;;16.87;64.07;96796.97;5094158;28;20020;-66
2021/09/28 05:19:24;;;;;;;6.22;4.30;;;;;;;17.46;62.11;96803.16;5093832;28;20040;-65
2021/09/28 05:21:50;;;;;;;10.27;4.93;;;;;;;17.97;60.69;96799.13;5093831;28;20478;-66
2021/09/28 05:24:16;;;;;;;9.65;4.28;;;;;;;18.11;60.29;96792.97;5093827;28;20031;-66
2021/09/28 05:26:41;;;;;;;4.80;3.75;;;;;;;18.37;59.13;96798.38;5093792;28;20028;-65
2021/09/28 05:29:07;;;;;;;7.78;4.13;;;;;;;18.46;58.49;96790.78;5093699;28;20024;-66
2021/09/28 05:31:32;;;;;;;7.32;4.50;;;;;;;18.33;59.30;96801.31;5093609;28;20525;-65
2021/09/28 05:33:58;;;;;;;8.13;4.30;;;;;;;18.35;59.90;96802.91;5093650;28;20051;-66
2021/09/28 05:36:24;;;;;;;10.05;5.05;;;;;;;18.97;59.09;96797.13;5093552;28;20070;-66
2021/09/28 05:38:49;;;;;;;6.65;4.55;;;;;;;19.43;57.77;96799.28;5093680;28;20016;-66
2021/09/28 05:41:16;;;;;;;10.05;4.13;;;;;;;20.13;56.42;96798.81;5093699;28;20055;-66
2021/09/28 05:43:42;;;;;;;6.43;3.70;;;;;;;20.82;53.61;96802.63;5093442;28;20028;-66
2021/09/28 05:46:08;;;;;;;6.40;3.67;;;;;;;21.39;53.11;96807.22;5093142;28;20111;-66
2021/09/28 05:48:34;;;;;;;5.43;3.50;;;;;;;21.52;52.49;96808.91;5093190;28;20020;-66
2021/09/28 05:51:00;;;;;;;5.35;3.63;;;;;;;21.45;52.57;96817.38;5093524;28;20035;-66
2021/09/28 05:53:33;;;;;;;7.20;4.25;;;;;;;21.56;52.04;96810.38;5093075;28;20040;-65
2021/09/28 05:55:58;;;;;;;5.40;4.07;;;;;;;22.08;50.72;96810.72;5091980;28;20381;-66
2021/09/28 05:58:24;;;;;;;7.90;4.70;;;;;;;22.69;49.34;96813.81;5093243;28;20024;-66
2021/09/28 06:00:50;;;;;;;7.88;4.32;;;;;;;23.20;48.03;96807.84;5093307;28;20381;-66
2021/09/28 06:03:15;;;;;;;7.03;4.00;;;;;;;23.64;47.75;96821.03;5093183;28;20047;-65
2021/09/28 06:05:41;;;;;;;10.60;4.32;;;;;;;23.43;47.85;96816.56;5093092;28;20066;-67
2021/09/28 06:08:06;;;;;;;4.95;4.00;;;;;;;23.73;47.78;96817.56;5093171;28;20381;-64
2021/09/28 06:10:32;;;;;;;5.25;4.03;;;;;;;24.28;45.96;96823.47;5093113;28;20024;-67
2021/09/28 06:12:58;;;;;;;7.20;3.78;;;;;;;24.71;45.33;96828.59;5093108;28;20038;-66
2021/09/28 06:15:24;;;;;;;6.95;3.88;;;;;;;24.65;45.61;96821.13;5093148;28;20032;-65
2021/09/28 06:17:50;;;;;;;5.85;4.18;;;;;;;24.68;45.26;96826.19;5093171;28;20024;-66
2021/09/28 06:20:16;;;;;;;7.68;4.50;;;;;;;24.90;44.02;96834.94;5093072;28;20465;-66
2021/09/28 06:22:41;;;;;;;8.13;4.63;;;;;;;24.56;44.96;96834.34;5093078;28;20016;-66
2021/09/28 06:25:07;;;;;;;7.30;4.45;;;;;;;24.20;46.06;96832.19;5092960;28;20494;-64
2021/09/28 06:27:33;;;;;;;8.35;4.10;;;;;;;24.14;46.99;96827.38;5092937;28;20028;-65
2021/09/28 06:29:58;;;;;;;4.53;3.90;;;;;;;24.06;47.28;96825.38;5093044;28;20103;-64
2021/09/28 06:32:24;;;;;;;7.03;4.20;;;;;;;23.90;48.06;96830.38;5093056;28;20016;-66
2021/09/28 06:34:50;;;;;;;7.75;4.65;;;;;;;23.54;48.24;96831.63;5092972;28;20060;-65
2021/09/28 06:37:15;;;;;;;9.45;5.25;;;;;;;23.20;49.17;96838.03;5092986;28;20032;-66
2021/09/28 06:39:41;;;;;;;7.40;5.40;;;;;;;23.17;49.95;96840.09;5092950;28;20069;-66
2021/09/28 06:42:07;;;;;;;9.35;5.47;;;;;;;23.11;49.27;96838.81;5092923;28;20031;-65
2021/09/28 06:44:33;;;;;;;12.63;6.30;;;;;;;22.86;49.99;96840.88;5092838;28;20408;-65
2021/09/28 06:46:59;;;;;;;7.18;5.75;;;;;;;22.86;50.12;96840.88;5092805;28;20114;-65
2021/09/28 06:49:24;;;;;;;9.18;5.93;;;;;;;22.70;50.60;96844.00;5092955;28;20028;-66
2021/09/28 06:51:50;;;;;;;15.65;5.95;;;;;;;22.71;50.00;96841.19;5092832;28;20111;-64
2021/09/28 06:54:16;;;;;;;10.50;6.35;;;;;;;22.59;51.24;96845.72;5092511;28;20040;-65
2021/09/28 06:56:42;;;;;;;7.70;6.32;;;;;;;22.38;51.91;96850.09;5092750;28;20020;-65
2021/09/28 06:59:10;;;;;;;10.15;6.80;;;;;;;22.28;52.24;96855.34;5095314;28;20028;-64
2021/09/28 07:01:36;;;;;;;7.75;6.18;;;;;;;22.15;51.95;96856.34;5096434;28;20028;-65
2021/09/28 07:04:02;;;;;;;9.18;6.60;;;;;;;21.96;52.39;96868.47;5096350;28;20438;-66
2021/09/28 07:06:28;;;;;;;9.40;7.43;;;;;;;21.86;53.97;96858.66;5096486;28;20023;-66
2021/09/28 07:08:54;;;;;;;15.20;6.38;;;;;;;21.75;53.58;96857.69;5096541;28;20382;-65
2021/09/28 07:11:20;;;;;;;8.85;6.93;;;;;;;21.86;53.43;96862.19;5096250;28;20493;-65
2021/09/28 07:13:47;;;;;;;8.55;6.03;;;;;;;22.39;52.31;96851.81;5096226;28;20466;-64
2021/09/28 07:16:13;;;;;;;7.20;5.80;;;;;;;23.00;51.53;96855.75;5096324;28;20081;-66
2021/09/28 07:18:39;;;;;;;9.68;6.15;;;;;;;23.17;50.10;96856.97;5096317;28;20377;-66
2021/09/28 07:21:05;;;;;;;8.55;6.15;;;;;;;23.30;49.71;96859.44;5096063;28;20035;-64
2021/09/28 07:23:31;;;;;;;11.82;6.30;;;;;;;23.21;50.31;96858.38;5096102;28;20020;-63
2021/09/28 07:25:57;;;;;;;9.57;6.15;;;;;;;23.16;50.47;96860.63;5095998;28;20032;-66
2021/09/28 07:28:23;;;;;;;10.95;6.38;;;;;;;23.35;48.21;96857.22;5095919;28;20024;-64
2021/09/28 07:30:50;;;;;;;6.88;6.07;;;;;;;23.48;46.54;96858.88;5096004;28;20123;-64
2021/09/28 07:33:15;;;;;;;11.23;7.68;;;;;;;22.90;48.74;96860.97;5095896;28;20016;-65
2021/09/28 07:35:43;;;;;;;14.68;7.80;;;;;;;22.33;51.23;96854.00;5095811;28;20031;-64
2021/09/28 07:38:09;;;;;;;10.60;7.88;;;;;;;21.86;51.28;96853.34;5095743;28;20110;-64
2021/09/28 07:40:35;;;;;;;10.43;7.72;;;;;;;21.61;52.14;96850.75;5095792;28;20103;-65
2021/09/28 07:43:00;;;;;;;12.18;7.95;;;;;;;22.07;53.21;96850.78;5095751;28;20020;-64
2021/09/28 07:45:26;;;;;;;11.30;7.80;;;;;;;22.28;50.96;96848.22;5095653;28;20481;-65
2021/09/28 07:47:52;;;;;;;8.55;7.53;;;;;;;21.89;52.06;96845.09;5095659;28;20036;-66
2021/09/28 07:50:18;;;;;;;9.30;7.93;;;;;;;21.69;51.53;96855.47;5095554;28;20031;-64
2021/09/28 07:52:45;;;;;;;14.73;8.23;;;;;;;21.76;51.48;96850.56;5095398;28;20039;-64
2021/09/28 07:55:11;;;;;;;12.00;7.75;;;;;;;21.98;50.74;96851.50;5095544;28;20020;-65
2021/09/28 07:57:36;;;;;;;9.15;7.15;;;;;;;22.26;48.15;96849.28;5095381;28;20020;-64
2021/09/28 08:00:05;;;;;;;10.60;7.45;;;;;;;22.14;47.92;96846.66;5095352;28;20489;-65
2021/09/28 08:02:31;;;;;;;11.15;7.60;;;;;;;21.82;49.58;96845.59;5095243;28;20059;-65
2021/09/28 08:04:57;;;;;;;11.27;7.72;;;;;;;21.79;48.55;96850.34;5095133;28;20114;-63
2021/09/28 08:07:23;;;;;;;12.10;8.00;;;;;;;21.99;49.51;96847.88;5095249;28;20028;-64
2021/09/28 08:09:48;;;;;;;12.43;8.45;;;;;;;21.85;49.82;96849.81;5094603;28;20027;-64
2021/09/28 08:12:14;;;;;;;9.80;8.85;;;;;;;21.50;51.42;96848.09;5095094;28;20031;-66
2021/09/28 08:14:40;;;;;;;14.52;9.93;;;;;;;21.47;52.28;96849.19;5095063;28;20035;-63
2021/09/28 08:17:06;;;;;;;12.70;9.05;;;;;;;21.71;50.96;96850.91;5095101;28;20470;-62
2021/09/28 08:19:33;;;;;;;16.13;9.13;;;;;;;22.06;51.14;96854.41;5095150;28;20051;-63
2021/09/28 08:22:00;;;;;;;9.95;8.43;;;;;;;22.28;50.25;96855.34;5095056;28;20032;-62
2021/09/28 08:24:29;;;;;;;12.25;9.45;;;;;;;22.17;51.93;96848.22;5094769;28;20374;-65
2021/09/28 08:29:39;;;;;;;9.85;8.52;;;;;;;22.15;50.14;96842.19;5095194;28;20453;-66
2021/09/28 08:32:05;;;;;;;13.60;9.60;;;;;;;22.21;50.51;96847.00;5094844;28;20415;-66
2021/09/28 08:34:30;;;;;;;13.98;9.27;;;;;;;22.15;50.50;96847.50;5094640;28;20109;-62
2021/09/28 08:36:56;;;;;;;10.55;9.20;;;;;;;22.16;50.58;96844.72;5094675;28;20465;-64
2021/09/28 08:39:21;;;;;;;13.90;9.80;;;;;;;22.49;50.02;96839.44;5094681;28;20050;-65
2021/09/28 08:41:51;;;;;;;12.85;10.18;;;;;;;22.71;49.27;96835.88;5094550;28;20028;-66
2021/09/28 08:44:17;;;;;;;13.27;9.02;;;;;;;22.93;48.82;96836.72;5094415;28;20060;-63
2021/09/28 08:46:48;;;;;;;11.50;9.20;;;;;;;23.06;48.83;96835.69;5094446;28;20038;-66
2021/09/28 08:49:18;;;;;;;12.60;9.50;;;;;;;23.43;49.21;96829.91;5094432;28;20028;-64
2021/09/28 08:51:44;;;;;;;;;;;;;;;23.84;46.21;96821.94;5094803;28;20409;-67
2021/09/28 08:54:10;;;;;;;10.05;8.57;;;;;;;24.10;44.36;96817.91;5094101;28;19920;-66
2021/09/28 08:56:35;;;;;;;10.88;8.65;;;;;;;24.38;44.14;96823.47;5094473;28;20028;-64
2021/09/28 08:59:05;;;;;;;12.95;8.20;;;;;;;24.64;43.83;96827.44;5094316;28;20470;-66
2021/09/28 09:01:34;;;;;;;11.23;8.60;;;;;;;24.76;43.15;96825.47;5094188;28;20024;-63
2021/09/28 09:04:21;;;;;;;9.18;7.90;;;;;;;25.02;42.00;96817.75;5094064;28;20028;-64
2021/09/28 09:06:48;;;;;;;9.88;8.13;;;;;;;25.12;43.76;96817.72;5094143;28;20028;-64
2021/09/28 09:09:15;;;;;;;10.07;7.93;;;;;;;25.28;42.61;96830.50;5093886;28;20016;-66
2021/09/28 09:11:47;;;;;;;9.48;7.43;;;;;;;25.41;41.64;96829.38;5094024;28;20026;-66
2021/09/28 09:14:21;;;;;;;14.27;8.07;;;;;;;25.34;42.48;96834.44;5093949;28;20076;-64
2021/09/28 09:16:49;;;;;;;9.80;8.20;;;;;;;24.98;42.26;96829.72;5093969;28;20036;-63
2021/09/28 09:19:29;;;;;;;11.18;8.00;;;;;;;24.48;42.43;96832.34;5093995;28;20020;-67
2021/09/28 09:21:57;;;;;;;10.10;7.75;;;;;;;24.28;43.12;96822.63;5093119;28;20051;-63
2021/09/28 09:24:46;;;;;;;12.25;7.90;;;;;;;24.22;43.01;96813.34;5093804;28;20440;-65
2021/09/28 09:27:19;;;;;;;13.23;7.70;;;;;;;24.01;42.35;96821.41;5093812;28;20389;-66
2021/09/28 09:30:03;;;;;;;8.88;7.97;;;;;;;23.78;42.46;96810.97;5093657;28;20473;-66
2021/09/28 09:32:57;;;;;;;9.73;8.70;;;;;;;23.55;44.57;96814.66;5093735;28;20393;-65
2021/09/28 09:35:25;;;;;;;11.98;7.78;;;;;;;23.34;43.49;96814.66;5093698;28;20100;-67
2021/09/28 09:37:51;;;;;;;11.43;7.68;;;;;;;23.29;45.36;96812.38;5093585;28;20065;-65
2021/09/28 09:40:42;;;;;;;11.15;8.05;;;;;;;23.43;44.86;96808.56;5093500;28;20102;-66
2021/09/28 09:43:09;;;;;;;15.10;7.45;;;;;;;23.60;43.91;96812.41;5093516;28;20032;-66
2021/09/28 09:45:35;;;;;;;9.00;7.07;;;;;;;23.79;43.08;96796.63;5093358;28;20032;-65
2021/09/28 09:48:23;;;;;;;10.73;7.70;;;;;;;23.82;43.20;96807.88;5093487;28;20023;-66
2021/09/28 09:51:06;;;;;;;9.70;6.88;;;;;;;23.75;44.17;96806.72;5093422;28;20028;-65
2021/09/28 09:53:33;;;;;;;12.18;7.20;;;;;;;23.52;44.39;96801.59;5093143;28;20060;-66
2021/09/28 09:55:59;;;;;;;9.60;7.32;;;;;;;23.50;44.74;96805.38;5093286;28;20401;-64
2021/09/28 09:58:25;;;;;;;9.52;7.50;;;;;;;23.46;45.45;96802.97;5093393;28;20020;-65
2021/09/28 10:00:54;;;;;;;13.38;9.07;;;;;;;23.34;46.79;96806.66;5093230;28;20103;-66
2021/09/28 10:03:20;;;;;;;14.50;7.75;;;;;;;23.31;45.09;96805.09;5093215;28;20027;-64
2021/09/28 10:05:46;;;;;;;11.90;9.00;;;;;;;23.23;45.38;96804.91;5093230;28;20024;-64
2021/09/28 10:08:14;;;;;;;12.43;9.18;;;;;;;23.01;46.42;96812.06;5093388;28;20057;-66
2021/09/28 10:10:44;;;;;;;9.90;8.90;;;;;;;23.08;45.88;96810.59;5093183;28;20023;-64
2021/09/28 10:13:46;;;;;;;13.95;9.38;;;;;;;23.03;46.44;96812.78;5093053;28;20038;-64
2021/09/28 10:16:38;;;;;;;9.55;8.15;;;;;;;22.88;46.30;96808.75;5093198;28;20169;-64
2021/09/28 10:19:25;;;;;;;15.10;8.90;;;;;;;22.72;46.60;96805.56;5084899;28;20036;-64
2021/09/28 10:21:51;;;;;;;12.00;8.48;;;;;;;22.71;46.55;96806.53;5093191;28;20377;-65
2021/09/28 10:24:22;;;;;;;10.38;8.45;;;;;;;22.64;46.93;96812.50;5093051;28;20020;-64
2021/09/28 10:27:07;;;;;;;11.48;8.38;;;;;;;22.07;47.24;96806.34;5093042;28;20032;-66
2021/09/28 10:29:49;;;;;;;10.85;8.68;;;;;;;22.07;47.96;96806.34;5093018;28;20028;-63
2021/09/28 10:32:21;;;;;;;10.15;8.98;;;;;;;21.86;48.83;96805.41;5092972;28;20462;-65
2021/09/28 10:35:05;;;;;;;15.80;9.80;;;;;;;21.54;49.04;96818.47;5096885;28;20020;-63
2021/09/28 10:37:42;;;;;;;11.45;10.32;;;;;;;21.18;50.06;96815.03;5096912;28;20377;-64
2021/09/28 10:40:13;;;;;;;11.73;9.82;;;;;;;20.95;50.36;96812.34;5096788;28;20024;-66
2021/09/28 10:43:00;;;;;;;13.18;9.93;;;;;;;20.85;50.77;96806.84;5096897;28;20040;-65
2021/09/28 10:45:29;;;;;;;16.17;10.52;;;;;;;20.81;51.21;96808.03;5096862;28;20073;-65
2021/09/28 10:48:03;;;;;;;17.10;9.68;;;;;;;20.66;51.61;96813.56;5096832;28;20462;-64
2021/09/28 10:50:43;;;;;;;15.25;9.55;;;;;;;20.64;51.53;96812.81;5096755;28;20057;-64
2021/09/28 10:53:28;;;;;;;12.27;10.70;;;;;;;20.66;52.29;96815.38;5096521;28;20049;-66
2021/09/28 10:55:57;;;;;;;16.42;9.77;;;;;;;20.71;52.73;96824.69;5096456;28;20470;-65
2021/09/28 10:58:24;;;;;;;15.90;10.25;;;;;;;20.73;52.64;96808.63;5096622;28;20028;-64
2021/09/28 11:00:56;;;;;;;10.93;9.00;;;;;;;20.79;50.87;96823.25;5096600;28;20081;-65
2021/09/28 11:03:50;;;;;;;12.32;9.38;;;;;;;20.87;51.00;96814.69;5096502;28;20016;-65
2021/09/28 11:06:17;;;;;;;10.00;8.98;;;;;;;20.92;50.57;96816.06;5096461;28;20032;-65
2021/09/28 11:08:42;;;;;;;13.55;9.50;;;;;;;20.89;49.86;96813.63;5096452;28;20023;-65
2021/09/28 11:11:11;;;;;;;12.05;9.68;;;;;;;20.81;50.81;96818.69;5096383;28;20028;-65
2021/09/28 11:13:39;;;;;;;10.70;9.40;;;;;;;20.40;51.97;96813.69;5096257;28;20028;-64
2021/09/28 11:16:09;;;;;;;13.15;9.52;;;;;;;20.36;53.33;96809.56;5096298;28;20103;-65
2021/09/28 11:18:38;;;;;;;11.95;9.45;;;;;;;20.43;53.97;96807.28;5096286;28;20024;-66
2021/09/28 11:21:12;;;;;;;16.15;9.23;;;;;;;20.55;52.62;96802.88;5096223;28;20495;-64
2021/09/28 11:23:39;;;;;;;12.43;10.27;;;;;;;20.70;52.25;96801.72;5096144;28;20028;-66
2021/09/28 11:26:05;;;;;;;20.63;9.45;;;;;;;20.87;52.58;96802.25;5096014;28;20024;-64
2021/09/28 11:28:32;;;;;;;15.05;10.40;;;;;;;20.99;52.48;96810.28;5096138;28;20020;-65
2021/09/28 11:31:00;;;;;;;14.10;9.75;;;;;;;21.16;51.89;96803.69;5095950;28;20024;-65
2021/09/28 11:33:27;;;;;;;9.88;8.60;;;;;;;21.15;51.17;96802.84;5095818;28;20462;-65
2021/09/28 11:35:58;;;;;;;15.48;9.30;;;;;;;21.24;50.83;96789.78;5095949;28;20385;-65